Hauptseite
METAR-TAF:

METAR-TAF

Flughäfen :

Flughafen Kruger Mpumalanga International

Krüger-Nationalpark, Südafrika

Breite: 25-23-00S, Länge: 31-06-20E, Höhe: 862 m

Beobachtung

Neuester Wetterbericht von vor 1 Stunde und 13 Minuten, um 19:00 UTC
Wind 6 kt aus Ost
Temperatur 18°C
Luftfeuchtigkeit 77%
Luftdruck 1025 hPa

METAR: FAKN 241900Z 08006KT //// ////// 18/14 Q1025

Zeit: 22:13 (20:13 UTC)

Prognose

Neuester Wetterbericht von vor 11 Stunden und 13 Minuten, um 09:00 UTC
Gültige Prognose vom 24 um 10 UTC bis 24 um 18 UTC
Wind 3 kt aus unterschiedlichen Richtungen
Sichtweite 10 km oder mehr
Aufgelockert bewölkt in der Höhe von 2500 ft
Übergehend zu
vom 24 um 12 UTC bis 24 um 14 UTC
Wind 7 kt aus Ost/Südost

TAF: FAKN 240900Z 2410/2418 VRB03KT 9999 SCT025 TX24/2413Z TN17/2418Z BECMG 2412/2414 11007KT

Wetterbeobachtungen und Prognosen von mehr als 4000 Flughäfen (METAR und TAF Bericht).

Die verfügbaren Stationen werden durch gelbe und rote Markierungen auf der Karte dargestellt.

Führen Sie die Maus auf sie, um den Namen der Station zu sehen.

Darauf klicken, um die Beobachtung von Wetterbeobachtungen und Prognosen zu sehen.

Um die Karte zu ändern : klicken Sie auf den grünen Tasten mit einem schwarzen Kreuz Zum Vergrößern, auf den grünen Button mit einem Gedankenstrich zu verkleinern, oder auf die grünen Pfeile für benachbarte Karten.


METAR-TAF: